createdAt,value
2018-12-26T00:01:12.872Z,12.07
2018-12-26T00:03:43.895Z,10.70
2018-12-26T00:06:14.748Z,10.93
2018-12-26T00:08:45.786Z,10.53
2018-12-26T00:11:16.789Z,11.37
2018-12-26T00:13:47.868Z,10.57
2018-12-26T00:16:18.681Z,11.37
2018-12-26T00:18:49.595Z,11.30
2018-12-26T00:21:20.541Z,10.73
2018-12-26T00:23:51.445Z,10.20
2018-12-26T00:26:22.290Z,10.70
2018-12-26T00:28:53.172Z,9.63
2018-12-26T00:31:24.060Z,9.87
2018-12-26T00:33:54.993Z,10.63
2018-12-26T00:36:25.926Z,9.17
2018-12-26T00:38:56.895Z,10.10
2018-12-26T00:41:27.792Z,9.67
2018-12-26T00:44:00.707Z,8.90
2018-12-26T00:46:31.627Z,9.17
2018-12-26T00:49:02.577Z,9.73
2018-12-26T00:51:33.615Z,11.93
2018-12-26T00:54:04.602Z,9.60
2018-12-26T00:56:35.546Z,9.77
2018-12-26T00:59:06.556Z,9.87
2018-12-26T01:01:37.435Z,12.67
2018-12-26T01:04:08.426Z,10.60
2018-12-26T01:06:39.431Z,10.30
2018-12-26T01:09:10.779Z,10.40
2018-12-26T01:11:41.671Z,10.13
2018-12-26T01:14:12.628Z,10.50
2018-12-26T01:16:43.590Z,10.83
2018-12-26T01:19:14.555Z,10.53
2018-12-26T01:21:45.528Z,10.67
2018-12-26T01:24:16.459Z,9.60
2018-12-26T01:26:47.353Z,9.50
2018-12-26T01:29:18.318Z,10.13
2018-12-26T01:31:49.271Z,11.00
2018-12-26T01:34:20.151Z,11.00
2018-12-26T01:36:51.023Z,10.00
2018-12-26T01:39:22.019Z,10.00
2018-12-26T01:41:52.903Z,9.87
2018-12-26T01:44:23.923Z,9.93
2018-12-26T01:46:54.833Z,11.27
2018-12-26T01:49:25.725Z,12.50
2018-12-26T01:51:56.719Z,11.27
2018-12-26T01:54:27.645Z,11.40
2018-12-26T01:56:58.544Z,12.03
2018-12-26T01:59:29.509Z,12.10
2018-12-26T02:02:00.433Z,12.03
2018-12-26T02:04:31.679Z,11.97
2018-12-26T02:07:02.655Z,11.37
2018-12-26T02:09:33.621Z,12.40
2018-12-26T02:12:04.597Z,13.53
2018-12-26T02:14:35.592Z,11.83
2018-12-26T02:17:07.207Z,12.90
2018-12-26T02:19:38.269Z,12.67
2018-12-26T02:22:09.288Z,11.50
2018-12-26T02:24:40.313Z,12.97
2018-12-26T02:27:11.229Z,11.97
2018-12-26T02:29:42.163Z,11.70
2018-12-26T02:32:13.206Z,12.60
2018-12-26T02:34:44.173Z,11.97
2018-12-26T02:37:15.115Z,14.03
2018-12-26T02:39:46.070Z,13.03
2018-12-26T02:42:17.026Z,13.63
2018-12-26T02:44:48.013Z,14.30
2018-12-26T02:47:21.009Z,13.07
2018-12-26T02:49:52.020Z,13.23
2018-12-26T02:52:22.983Z,15.10
2018-12-26T02:54:54.031Z,13.83
2018-12-26T02:57:25.026Z,12.90
2018-12-26T02:59:55.947Z,12.77
2018-12-26T03:02:26.864Z,11.90
2018-12-26T03:04:57.886Z,12.50
2018-12-26T03:07:28.788Z,12.50
2018-12-26T03:09:59.788Z,12.07
2018-12-26T03:12:30.909Z,11.67
2018-12-26T03:15:02.026Z,12.67
2018-12-26T03:17:34.536Z,12.70
2018-12-26T03:20:05.589Z,11.53
2018-12-26T03:22:36.604Z,12.27
2018-12-26T03:25:07.648Z,12.07
2018-12-26T03:27:38.738Z,12.07
2018-12-26T03:30:09.741Z,11.70
2018-12-26T03:32:40.701Z,13.73
2018-12-26T03:35:11.766Z,12.87
2018-12-26T03:37:42.868Z,12.23
2018-12-26T03:40:13.936Z,13.23
2018-12-26T03:42:45.029Z,12.90
2018-12-26T03:45:16.330Z,14.50
2018-12-26T03:47:47.450Z,16.20
2018-12-26T03:50:18.476Z,12.83
2018-12-26T03:52:49.754Z,11.80
2018-12-26T03:55:21.004Z,12.30
2018-12-26T03:57:52.028Z,12.50
2018-12-26T04:00:27.350Z,12.20
2018-12-26T04:03:01.575Z,11.87
2018-12-26T04:05:32.628Z,13.27
2018-12-26T04:08:03.834Z,12.73
2018-12-26T04:10:34.913Z,12.90
2018-12-26T04:13:06.264Z,13.47
2018-12-26T04:15:37.423Z,15.40
2018-12-26T04:18:08.539Z,13.53
2018-12-26T04:20:39.654Z,14.63
2018-12-26T04:23:11.004Z,16.77
2018-12-26T04:25:42.001Z,17.80
2018-12-26T04:28:12.861Z,17.60
2018-12-26T04:30:43.862Z,18.27
2018-12-26T04:33:14.846Z,15.73
2018-12-26T04:35:45.880Z,19.00
2018-12-26T04:38:16.778Z,15.33
2018-12-26T04:40:47.722Z,16.80
2018-12-26T04:43:18.649Z,16.33
2018-12-26T04:45:49.741Z,18.00
2018-12-26T04:48:20.757Z,19.43
2018-12-26T04:50:51.848Z,16.87
2018-12-26T04:53:22.835Z,20.60
2018-12-26T04:55:53.938Z,16.47
2018-12-26T04:58:24.975Z,16.80
2018-12-26T05:00:55.941Z,17.73
2018-12-26T05:03:26.958Z,19.03
2018-12-26T05:05:57.947Z,22.67
2018-12-26T05:08:29.008Z,23.20
2018-12-26T05:11:04.399Z,18.00
2018-12-26T05:13:35.397Z,23.73
2018-12-26T05:16:06.453Z,21.23
2018-12-26T05:18:37.556Z,21.13
2018-12-26T05:21:08.679Z,22.87
2018-12-26T05:23:39.784Z,25.90
2018-12-26T05:26:10.881Z,27.73
2018-12-26T05:28:42.110Z,27.30
2018-12-26T05:31:13.000Z,26.47
2018-12-26T05:33:44.000Z,22.70
2018-12-26T05:36:14.989Z,23.97
2018-12-26T05:38:45.981Z,23.30
2018-12-26T05:41:17.049Z,22.53
2018-12-26T05:43:48.321Z,26.50
2018-12-26T05:46:19.587Z,24.27
2018-12-26T05:48:50.603Z,22.97
2018-12-26T05:51:21.747Z,24.27
2018-12-26T05:53:52.791Z,28.13
2018-12-26T05:56:23.839Z,25.33
2018-12-26T05:58:54.779Z,27.03
2018-12-26T06:01:25.827Z,24.40
2018-12-26T06:03:56.739Z,25.17
2018-12-26T06:06:27.667Z,31.03
2018-12-26T06:08:58.628Z,32.60
2018-12-26T06:11:29.721Z,27.67
2018-12-26T06:14:00.964Z,26.13
2018-12-26T06:16:32.093Z,25.03
2018-12-26T06:19:03.080Z,23.47
2018-12-26T06:21:34.088Z,26.43
2018-12-26T06:24:05.289Z,22.63
2018-12-26T06:26:36.171Z,26.43
2018-12-26T06:29:07.094Z,25.97
2018-12-26T06:31:38.152Z,23.63
2018-12-26T06:34:09.271Z,25.67
2018-12-26T06:36:40.364Z,26.47
2018-12-26T06:39:11.687Z,25.50
2018-12-26T06:41:42.659Z,25.40
2018-12-26T06:44:13.626Z,27.23
2018-12-26T06:46:44.700Z,25.90
2018-12-26T06:49:15.730Z,26.87
2018-12-26T06:51:46.693Z,27.67
2018-12-26T06:54:17.578Z,26.10
2018-12-26T06:56:48.498Z,24.67
2018-12-26T06:59:19.530Z,28.13
2018-12-26T07:01:50.519Z,29.30
2018-12-26T07:04:21.648Z,29.93
2018-12-26T07:06:52.704Z,32.80
2018-12-26T07:09:23.698Z,29.30
2018-12-26T07:11:54.785Z,25.23
2018-12-26T07:14:25.837Z,22.93
2018-12-26T07:16:56.800Z,24.73
2018-12-26T07:19:27.684Z,24.97
2018-12-26T07:21:58.668Z,23.37
2018-12-26T07:24:29.635Z,23.77
2018-12-26T07:27:00.566Z,24.23
2018-12-26T07:29:31.539Z,28.50
2018-12-26T07:32:02.590Z,25.10
2018-12-26T07:34:41.977Z,23.97
2018-12-26T07:37:06.172Z,23.90
2018-12-26T07:39:37.152Z,22.43
2018-12-26T07:42:08.054Z,22.27
2018-12-26T07:44:39.129Z,24.57
2018-12-26T07:47:10.110Z,28.87
2018-12-26T07:49:41.064Z,26.03
2018-12-26T07:52:12.088Z,25.20
2018-12-26T07:54:42.978Z,24.07
2018-12-26T07:57:13.891Z,23.80
2018-12-26T07:59:44.798Z,27.57
2018-12-26T08:02:15.838Z,23.83
2018-12-26T08:04:46.832Z,27.07
2018-12-26T08:07:17.867Z,21.53
2018-12-26T08:09:48.770Z,25.87
2018-12-26T08:12:19.707Z,21.20
2018-12-26T08:14:50.596Z,19.87
2018-12-26T08:17:21.552Z,20.93
2018-12-26T08:19:52.462Z,20.27
2018-12-26T08:22:23.387Z,21.00
2018-12-26T08:25:20.227Z,22.17
2018-12-26T08:27:52.190Z,51.17
2018-12-26T08:30:23.351Z,51.70
2018-12-26T08:32:54.242Z,15.50
2018-12-26T08:35:25.101Z,11.37
2018-12-26T08:37:56.097Z,13.57
2018-12-26T08:40:26.989Z,10.27
2018-12-26T08:42:57.995Z,10.10
2018-12-26T08:45:28.948Z,10.83
2018-12-26T08:47:59.896Z,9.93
2018-12-26T08:50:30.911Z,9.87
2018-12-26T08:53:01.777Z,9.53
2018-12-26T08:55:31.688Z,9.63
2018-12-26T08:58:02.370Z,11.30
2018-12-26T09:00:33.493Z,11.20
2018-12-26T09:03:04.554Z,10.50
2018-12-26T09:05:35.443Z,9.70
2018-12-26T09:08:06.456Z,9.13
2018-12-26T09:10:37.488Z,9.07
2018-12-26T09:13:08.418Z,9.70
2018-12-26T09:15:39.504Z,9.67
2018-12-26T09:18:10.460Z,9.67
2018-12-26T09:20:41.343Z,8.77
2018-12-26T09:23:12.390Z,8.97
2018-12-26T09:25:43.493Z,9.43
2018-12-26T09:28:14.435Z,8.83
2018-12-26T09:30:45.381Z,8.47
2018-12-26T09:33:16.286Z,8.60
2018-12-26T09:35:47.173Z,8.13
2018-12-26T09:38:18.074Z,8.77
2018-12-26T09:40:48.944Z,9.17
2018-12-26T09:43:20.038Z,8.67
2018-12-26T09:45:50.929Z,8.30
2018-12-26T09:48:21.963Z,8.63
2018-12-26T09:50:52.832Z,8.00
2018-12-26T09:53:23.789Z,8.53
2018-12-26T09:55:54.663Z,7.40
2018-12-26T09:58:25.623Z,7.60
2018-12-26T10:00:56.741Z,8.23
2018-12-26T10:03:27.732Z,7.73
2018-12-26T10:05:58.698Z,7.57
2018-12-26T10:08:29.644Z,7.90
2018-12-26T10:11:00.516Z,7.97
2018-12-26T10:13:31.486Z,8.30
2018-12-26T10:16:02.554Z,7.63
2018-12-26T10:18:33.593Z,8.40
2018-12-26T10:21:04.608Z,7.30
2018-12-26T10:23:35.543Z,6.70
2018-12-26T10:26:06.507Z,5.50
2018-12-26T10:28:37.471Z,4.57
2018-12-26T10:31:09.483Z,5.33
2018-12-26T10:33:40.456Z,5.37
2018-12-26T10:36:11.348Z,5.90
2018-12-26T10:38:42.365Z,5.60
2018-12-26T10:41:13.311Z,6.03
2018-12-26T10:43:44.283Z,5.60
2018-12-26T10:46:15.200Z,5.80
2018-12-26T10:48:46.091Z,6.00
2018-12-26T10:51:17.023Z,6.10
2018-12-26T10:53:47.909Z,6.47
2018-12-26T10:56:18.981Z,6.43
2018-12-26T10:58:49.985Z,6.27
2018-12-26T11:01:20.881Z,6.67
2018-12-26T11:03:51.812Z,7.00
2018-12-26T11:06:22.695Z,6.70
2018-12-26T11:08:53.705Z,6.33
2018-12-26T11:11:24.565Z,7.83
2018-12-26T11:13:55.634Z,6.57
2018-12-26T11:16:26.736Z,6.83
2018-12-26T11:18:57.807Z,7.07
2018-12-26T11:21:28.730Z,7.03
2018-12-26T11:23:59.742Z,6.10
2018-12-26T11:26:30.754Z,5.30
2018-12-26T11:29:01.808Z,5.97
2018-12-26T11:31:32.861Z,6.77
2018-12-26T11:34:03.726Z,4.77
2018-12-26T11:36:34.816Z,4.37
2018-12-26T11:39:06.810Z,4.10
2018-12-26T11:41:37.828Z,4.10
2018-12-26T11:44:08.809Z,4.60
2018-12-26T11:46:39.707Z,5.57
2018-12-26T11:49:10.677Z,6.40
2018-12-26T11:51:41.628Z,9.43
2018-12-26T11:54:12.570Z,5.63
2018-12-26T11:56:43.462Z,5.43
2018-12-26T11:59:14.451Z,12.40
2018-12-26T12:01:45.460Z,6.43
2018-12-26T12:04:16.642Z,6.10
2018-12-26T12:06:47.598Z,6.03
2018-12-26T12:09:18.624Z,5.23
2018-12-26T12:11:49.728Z,6.00
2018-12-26T12:14:20.664Z,5.60
2018-12-26T12:16:51.708Z,4.93
2018-12-26T12:19:22.749Z,7.63
2018-12-26T12:21:53.803Z,5.47
2018-12-26T12:24:24.751Z,6.30
2018-12-26T12:26:55.746Z,10.60
2018-12-26T12:29:26.756Z,12.13
2018-12-26T12:31:57.792Z,7.73
2018-12-26T12:34:28.766Z,5.67
2018-12-26T12:36:59.700Z,5.13
2018-12-26T12:39:30.723Z,4.80
2018-12-26T12:42:01.694Z,7.77
2018-12-26T12:44:32.709Z,5.53
2018-12-26T12:47:03.742Z,5.70
2018-12-26T12:49:34.777Z,7.67
2018-12-26T12:52:05.759Z,5.97
2018-12-26T12:54:36.737Z,5.07
2018-12-26T12:57:07.783Z,6.07
2018-12-26T12:59:44.712Z,5.30
2018-12-26T13:02:11.736Z,5.37
2018-12-26T13:04:42.869Z,5.50
2018-12-26T13:07:13.839Z,5.37
2018-12-26T13:09:44.791Z,6.13
2018-12-26T13:12:15.923Z,5.67
2018-12-26T13:14:46.893Z,4.80
2018-12-26T13:17:17.937Z,4.10
2018-12-26T13:19:48.838Z,4.17
2018-12-26T13:22:19.746Z,4.43
2018-12-26T13:24:50.717Z,4.77
2018-12-26T13:27:21.683Z,4.70
2018-12-26T13:29:53.921Z,3.57
2018-12-26T13:32:25.186Z,4.13
2018-12-26T13:34:56.171Z,4.10
2018-12-26T13:37:27.151Z,4.50
2018-12-26T13:39:58.195Z,4.13
2018-12-26T13:42:29.269Z,4.50
2018-12-26T13:45:00.233Z,4.30
2018-12-26T13:47:31.193Z,4.60
2018-12-26T13:50:02.225Z,5.07
2018-12-26T13:52:33.273Z,4.40
2018-12-26T13:55:04.666Z,5.87
2018-12-26T13:57:35.638Z,6.53
2018-12-26T14:00:10.311Z,6.53
2018-12-26T14:02:41.364Z,4.50
2018-12-26T14:05:12.340Z,5.80
2018-12-26T14:07:43.285Z,5.67
2018-12-26T14:10:14.278Z,6.03
2018-12-26T14:12:45.240Z,4.60
2018-12-26T14:15:16.314Z,5.53
2018-12-26T14:17:47.251Z,4.97
2018-12-26T14:20:18.296Z,5.07
2018-12-26T14:22:49.281Z,5.43
2018-12-26T14:25:20.340Z,4.37
2018-12-26T14:27:51.466Z,5.73
2018-12-26T14:30:22.322Z,5.37
2018-12-26T14:32:53.302Z,6.30
2018-12-26T14:35:24.280Z,4.80
2018-12-26T14:37:55.244Z,4.70
2018-12-26T14:40:26.226Z,5.57
2018-12-26T14:42:57.213Z,5.70
2018-12-26T14:45:28.338Z,7.17
2018-12-26T14:47:59.377Z,7.30
2018-12-26T14:50:33.383Z,6.50
2018-12-26T14:53:04.476Z,7.37
2018-12-26T14:55:35.441Z,8.50
2018-12-26T14:58:06.488Z,10.27
2018-12-26T15:00:37.472Z,11.50
2018-12-26T15:03:08.431Z,6.20
2018-12-26T15:05:39.475Z,6.07
2018-12-26T15:08:10.392Z,5.73
2018-12-26T15:10:41.487Z,6.30
2018-12-26T15:13:12.554Z,6.33
2018-12-26T15:15:43.515Z,10.60
2018-12-26T15:18:14.457Z,10.07
2018-12-26T15:20:45.427Z,9.73
2018-12-26T15:23:16.515Z,10.47
2018-12-26T15:25:47.643Z,10.80
2018-12-26T15:28:18.808Z,11.47
2018-12-26T15:30:50.153Z,12.93
2018-12-26T15:33:21.214Z,12.50
2018-12-26T15:35:52.234Z,12.13
2018-12-26T15:38:25.544Z,13.13
2018-12-26T15:40:56.631Z,12.10
2018-12-26T15:43:27.608Z,12.33
2018-12-26T15:45:58.654Z,11.90
2018-12-26T15:48:29.647Z,12.40
2018-12-26T15:51:00.561Z,12.90
2018-12-26T15:53:31.600Z,10.70
2018-12-26T15:56:02.617Z,13.67
2018-12-26T15:58:33.610Z,12.10
2018-12-26T16:01:04.630Z,13.33
2018-12-26T16:03:35.592Z,14.80
2018-12-26T16:06:06.692Z,12.03
2018-12-26T16:08:37.569Z,13.10
2018-12-26T16:11:09.011Z,12.40
2018-12-26T16:13:40.088Z,12.93
2018-12-26T16:16:11.174Z,13.57
2018-12-26T16:18:42.234Z,13.47
2018-12-26T16:21:13.191Z,12.90
2018-12-26T16:23:44.144Z,16.10
2018-12-26T16:26:15.293Z,12.40
2018-12-26T16:28:51.467Z,12.47
2018-12-26T16:31:22.356Z,19.07
2018-12-26T16:33:53.353Z,14.10
2018-12-26T16:36:24.415Z,14.10
2018-12-26T16:38:55.478Z,12.60
2018-12-26T16:41:26.580Z,12.90
2018-12-26T16:43:57.573Z,13.60
2018-12-26T16:46:28.607Z,13.10
2018-12-26T16:48:59.976Z,13.37
2018-12-26T16:51:31.006Z,13.17
2018-12-26T16:54:01.976Z,12.70
2018-12-26T16:56:32.969Z,12.97
2018-12-26T16:59:04.065Z,12.70
2018-12-26T17:01:35.029Z,13.50
2018-12-26T17:04:06.069Z,13.87
2018-12-26T17:06:36.934Z,13.20
2018-12-26T17:09:08.617Z,13.13
2018-12-26T17:11:39.754Z,13.00
2018-12-26T17:14:10.720Z,13.47
2018-12-26T17:16:41.794Z,13.40
2018-12-26T17:19:12.785Z,12.20
2018-12-26T17:21:43.767Z,13.80
2018-12-26T17:24:16.727Z,15.93
2018-12-26T17:26:47.393Z,14.00
2018-12-26T17:29:19.792Z,12.93
2018-12-26T17:31:50.713Z,16.53
2018-12-26T17:34:21.783Z,13.53
2018-12-26T17:36:52.808Z,16.10
2018-12-26T17:39:23.740Z,15.83
2018-12-26T17:41:54.762Z,14.90
2018-12-26T17:44:25.648Z,14.77
2018-12-26T17:46:56.624Z,15.27
2018-12-26T17:49:33.141Z,15.53
2018-12-26T17:52:04.241Z,17.13
2018-12-26T17:54:38.629Z,17.03
2018-12-26T17:57:09.624Z,20.43
2018-12-26T17:59:46.393Z,17.83
2018-12-26T18:02:20.429Z,22.77
2018-12-26T18:04:51.477Z,18.20
2018-12-26T18:07:22.429Z,29.87
2018-12-26T18:09:53.352Z,19.83
2018-12-26T18:12:24.471Z,22.23
2018-12-26T18:14:55.523Z,21.67
2018-12-26T18:17:26.624Z,26.87
2018-12-26T18:20:03.004Z,32.67
2018-12-26T18:22:37.555Z,23.57
2018-12-26T18:25:08.781Z,27.33
2018-12-26T18:27:39.890Z,39.73
2018-12-26T18:30:10.947Z,31.30
2018-12-26T18:32:41.934Z,30.77
2018-12-26T18:35:12.941Z,30.40
2018-12-26T18:37:43.931Z,30.40
2018-12-26T18:40:15.429Z,32.73
2018-12-26T18:42:46.392Z,30.73
2018-12-26T18:45:17.543Z,31.70
2018-12-26T18:47:48.667Z,29.93
2018-12-26T18:50:19.731Z,30.03
2018-12-26T18:52:50.764Z,31.60
2018-12-26T18:55:21.814Z,29.93
2018-12-26T18:57:52.947Z,29.03
2018-12-26T19:00:23.935Z,32.20
2018-12-26T19:02:54.991Z,31.23
2018-12-26T19:05:26.075Z,29.50
2018-12-26T19:07:57.120Z,27.60
2018-12-26T19:10:37.421Z,26.57
2018-12-26T19:13:08.387Z,25.10
2018-12-26T19:15:39.351Z,29.30
2018-12-26T19:18:10.476Z,34.97
2018-12-26T19:20:41.460Z,36.67
2018-12-26T19:23:12.424Z,28.73
2018-12-26T19:25:43.363Z,27.43
2018-12-26T19:28:14.277Z,28.43
2018-12-26T19:30:45.312Z,26.10
2018-12-26T19:33:16.355Z,25.67
2018-12-26T19:35:47.291Z,29.90
2018-12-26T19:38:18.279Z,32.83
2018-12-26T19:40:49.201Z,33.77
2018-12-26T19:43:20.108Z,30.47
2018-12-26T19:45:51.079Z,30.30
2018-12-26T19:48:22.055Z,28.13
2018-12-26T19:50:53.122Z,28.77
2018-12-26T19:53:24.254Z,29.83
2018-12-26T19:55:55.330Z,30.97
2018-12-26T19:58:26.449Z,46.53
2018-12-26T20:00:57.564Z,27.43
2018-12-26T20:03:28.574Z,30.90
2018-12-26T20:05:59.671Z,27.00
2018-12-26T20:08:30.656Z,29.33
2018-12-26T20:11:01.901Z,30.00
2018-12-26T20:13:32.984Z,29.17
2018-12-26T20:16:04.147Z,25.83
2018-12-26T20:18:35.175Z,26.13
2018-12-26T20:21:06.142Z,27.07
2018-12-26T20:23:37.136Z,25.13
2018-12-26T20:26:08.293Z,28.00
2018-12-26T20:28:39.372Z,26.80
2018-12-26T20:31:10.402Z,26.60
2018-12-26T20:33:41.736Z,26.23
2018-12-26T20:36:12.884Z,40.17
2018-12-26T20:38:43.815Z,26.40
2018-12-26T20:41:14.860Z,26.53
2018-12-26T20:43:46.046Z,30.87
2018-12-26T20:46:17.017Z,28.20
2018-12-26T20:48:48.181Z,26.33
2018-12-26T20:51:19.253Z,28.00
2018-12-26T20:53:50.214Z,27.33
2018-12-26T20:56:21.452Z,28.67
2018-12-26T20:58:52.446Z,27.73
2018-12-26T21:01:23.707Z,28.43
2018-12-26T21:03:54.808Z,25.97
2018-12-26T21:06:25.833Z,27.60
2018-12-26T21:08:56.886Z,26.17
2018-12-26T21:11:27.849Z,27.37
2018-12-26T21:13:58.746Z,28.50
2018-12-26T21:16:29.750Z,27.40
2018-12-26T21:19:00.788Z,29.97
2018-12-26T21:21:31.736Z,26.60
2018-12-26T21:24:06.134Z,25.67
2018-12-26T21:26:37.178Z,28.37
2018-12-26T21:29:08.218Z,25.67
2018-12-26T21:31:39.239Z,43.60
2018-12-26T21:34:10.279Z,25.33
2018-12-26T21:36:41.314Z,28.50
2018-12-26T21:39:12.363Z,28.57
2018-12-26T21:41:43.343Z,27.67
2018-12-26T21:44:14.323Z,28.27
2018-12-26T21:46:45.420Z,27.63
2018-12-26T21:49:16.454Z,28.20
2018-12-26T21:51:47.586Z,27.80
2018-12-26T21:54:18.631Z,25.93
2018-12-26T21:56:49.548Z,30.70
2018-12-26T21:59:20.795Z,27.33
2018-12-26T22:01:51.717Z,29.93
2018-12-26T22:04:22.713Z,27.90
2018-12-26T22:06:53.865Z,28.30
2018-12-26T22:09:25.127Z,34.53
2018-12-26T22:11:56.078Z,27.87
2018-12-26T22:14:27.086Z,32.23
2018-12-26T22:16:58.431Z,28.90
2018-12-26T22:19:29.564Z,28.87
2018-12-26T22:22:00.527Z,29.37
2018-12-26T22:24:31.547Z,28.00
2018-12-26T22:27:02.451Z,26.73
2018-12-26T22:29:33.413Z,30.10
2018-12-26T22:32:04.458Z,28.33
2018-12-26T22:34:35.476Z,27.43
2018-12-26T22:37:06.495Z,27.77
2018-12-26T22:39:37.389Z,26.37
2018-12-26T22:42:08.445Z,26.93
2018-12-26T22:44:39.458Z,27.50
2018-12-26T22:47:10.440Z,27.10
2018-12-26T22:49:41.397Z,28.17
2018-12-26T22:52:12.434Z,27.10
2018-12-26T22:54:43.388Z,27.13
2018-12-26T22:57:14.384Z,25.37
2018-12-26T22:59:45.309Z,26.43
2018-12-26T23:02:16.249Z,24.20
2018-12-26T23:04:47.288Z,29.47
2018-12-26T23:07:18.270Z,36.50
2018-12-26T23:09:49.213Z,28.70
2018-12-26T23:12:20.194Z,50.37
2018-12-26T23:14:51.102Z,27.63
2018-12-26T23:17:22.078Z,29.80
2018-12-26T23:19:53.066Z,45.93
2018-12-26T23:22:24.075Z,30.83
2018-12-26T23:24:55.245Z,23.60
2018-12-26T23:27:26.218Z,23.87
2018-12-26T23:29:57.252Z,23.67
2018-12-26T23:32:28.160Z,24.67
2018-12-26T23:34:59.714Z,24.00
2018-12-26T23:37:30.963Z,22.80
2018-12-26T23:40:02.055Z,23.20
2018-12-26T23:42:32.966Z,24.80
2018-12-26T23:45:03.936Z,22.57
2018-12-26T23:47:34.924Z,23.17
2018-12-26T23:50:05.860Z,21.47
2018-12-26T23:52:36.851Z,21.80
2018-12-26T23:55:07.822Z,20.13
2018-12-26T23:57:38.786Z,21.47
